createdAt,value
2022-11-23T00:01:28.819Z,8.63
2022-11-23T00:06:35.362Z,8.23
2022-11-23T00:11:39.310Z,9.23
2022-11-23T00:16:43.277Z,9.02
2022-11-23T00:21:48.360Z,8.25
2022-11-23T00:26:52.240Z,7.97
2022-11-23T00:31:55.953Z,7.15
2022-11-23T00:37:01.065Z,8.65
2022-11-23T00:42:05.035Z,7.97
2022-11-23T00:47:08.834Z,7.35
2022-11-23T00:52:13.934Z,7.57
2022-11-23T00:57:17.703Z,7.03
2022-11-23T01:02:21.589Z,6.05
2022-11-23T01:07:26.746Z,7.43
2022-11-23T01:12:31.236Z,6.07
2022-11-23T01:17:34.801Z,6.68
2022-11-23T01:22:40.905Z,6.40
2022-11-23T01:27:46.127Z,7.70
2022-11-23T01:32:49.866Z,6.28
2022-11-23T01:37:56.676Z,7.57
2022-11-23T01:43:02.741Z,7.18
2022-11-23T01:48:15.533Z,5.93
2022-11-23T01:53:21.495Z,7.20
2022-11-23T01:58:29.116Z,5.77
2022-11-23T02:03:34.569Z,7.88
2022-11-23T02:13:49.901Z,5.53
2022-11-23T02:18:54.873Z,5.27
2022-11-23T02:24:09.255Z,6.22
2022-11-23T02:29:21.475Z,5.57
2022-11-23T02:34:25.288Z,6.75
2022-11-23T02:39:35.948Z,6.07
2022-11-23T02:44:50.500Z,5.75
2022-11-23T02:49:54.086Z,5.75
2022-11-23T02:54:59.005Z,5.28
2022-11-23T03:00:05.620Z,5.90
2022-11-23T03:05:10.565Z,4.47
2022-11-23T03:10:14.920Z,6.72
2022-11-23T03:15:22.336Z,4.88
2022-11-23T03:20:26.343Z,4.60
2022-11-23T03:25:30.579Z,5.63
2022-11-23T03:30:37.226Z,5.18
2022-11-23T03:35:43.415Z,4.38
2022-11-23T03:40:55.330Z,6.32
2022-11-23T03:46:02.878Z,3.80
2022-11-23T03:51:07.479Z,5.30
2022-11-23T03:56:11.459Z,5.30
2022-11-23T04:01:21.282Z,5.43
2022-11-23T04:06:31.565Z,4.05
2022-11-23T04:11:42.554Z,5.93
2022-11-23T04:16:49.017Z,6.25
2022-11-23T04:21:53.233Z,6.78
2022-11-23T04:26:58.141Z,4.90
2022-11-23T04:32:03.661Z,6.72
2022-11-23T04:37:11.794Z,4.85
2022-11-23T04:42:18.413Z,4.13
2022-11-23T04:47:31.442Z,5.38
2022-11-23T04:52:39.586Z,4.57
2022-11-23T04:57:49.496Z,4.32
2022-11-23T05:02:55.459Z,4.45
2022-11-23T05:08:03.149Z,5.18
2022-11-23T05:13:26.250Z,4.70
2022-11-23T05:18:31.463Z,4.45
2022-11-23T05:23:35.360Z,4.38
2022-11-23T05:28:42.169Z,3.17
2022-11-23T05:33:51.555Z,4.65
2022-11-23T05:39:06.069Z,4.63
2022-11-23T05:44:10.061Z,4.68
2022-11-23T05:49:15.436Z,4.05
2022-11-23T05:54:20.616Z,6.57
2022-11-23T05:59:36.212Z,4.13
2022-11-23T06:04:41.884Z,5.70
2022-11-23T06:09:49.388Z,6.15
2022-11-23T06:14:53.496Z,5.70
2022-11-23T06:20:03.052Z,4.75
2022-11-23T06:25:08.234Z,4.13
2022-11-23T06:30:17.661Z,4.50
2022-11-23T06:35:24.882Z,4.13
2022-11-23T06:40:29.007Z,5.03
2022-11-23T06:45:32.982Z,4.70
2022-11-23T06:50:43.141Z,4.00
2022-11-23T06:55:46.972Z,4.43
2022-11-23T07:00:54.135Z,3.63
2022-11-23T07:06:05.192Z,5.55
2022-11-23T07:11:10.774Z,3.38
2022-11-23T07:16:16.044Z,4.32
2022-11-23T07:21:21.807Z,3.65
2022-11-23T07:26:27.352Z,4.07
2022-11-23T07:31:31.149Z,3.63
2022-11-23T07:36:36.676Z,5.68
2022-11-23T07:41:40.551Z,4.78
2022-11-23T07:46:47.127Z,3.63
2022-11-23T07:51:52.935Z,3.13
2022-11-23T07:56:56.671Z,3.92
2022-11-23T08:02:00.523Z,5.90
2022-11-23T08:07:06.175Z,5.20
2022-11-23T08:12:10.126Z,5.38
2022-11-23T08:17:13.844Z,4.68
2022-11-23T08:22:19.132Z,7.00
2022-11-23T08:27:23.123Z,7.88
2022-11-23T08:32:26.845Z,7.75
2022-11-23T08:37:31.864Z,9.43
2022-11-23T08:42:35.564Z,8.07
2022-11-23T08:47:39.237Z,9.13
2022-11-23T08:52:44.334Z,8.27
2022-11-23T08:57:48.146Z,7.50
2022-11-23T09:02:51.848Z,6.68
2022-11-23T09:08:00.381Z,9.02
2022-11-23T09:13:04.352Z,12.90
2022-11-23T09:18:08.248Z,13.93
2022-11-23T09:23:16.178Z,9.85
2022-11-23T09:28:20.696Z,8.77
2022-11-23T09:33:26.186Z,7.10
2022-11-23T09:38:55.525Z,6.32
2022-11-23T09:44:03.288Z,10.50
2022-11-23T09:49:17.100Z,4.43
2022-11-23T09:54:31.742Z,6.88
2022-11-23T09:59:43.623Z,6.93
2022-11-23T10:04:47.306Z,6.13
2022-11-23T10:10:06.516Z,6.32
2022-11-23T10:15:19.191Z,5.60
2022-11-23T10:20:44.216Z,6.68
2022-11-23T10:25:53.144Z,6.00
2022-11-23T10:31:13.682Z,4.22
2022-11-23T10:36:17.690Z,6.80
2022-11-23T10:41:22.780Z,7.38
2022-11-23T10:46:33.738Z,6.20
2022-11-23T10:51:37.877Z,4.03
2022-11-23T10:56:48.976Z,3.92
2022-11-23T11:02:10.512Z,5.38
2022-11-23T11:07:31.494Z,6.50
2022-11-23T11:12:37.264Z,7.35
2022-11-23T11:17:42.331Z,7.15
2022-11-23T11:22:47.909Z,7.65
2022-11-23T11:27:55.099Z,3.67
2022-11-23T11:33:09.860Z,4.33
2022-11-23T11:38:20.944Z,5.07
2022-11-23T11:43:39.647Z,4.38
2022-11-23T11:48:49.351Z,6.40
2022-11-23T11:54:01.166Z,5.72
2022-11-23T11:59:17.517Z,4.32
2022-11-23T12:04:38.813Z,4.32
2022-11-23T12:09:48.223Z,4.57
2022-11-23T12:14:54.192Z,4.25
2022-11-23T12:20:09.464Z,4.35
2022-11-23T12:25:33.384Z,5.28
2022-11-23T12:30:52.788Z,5.68
2022-11-23T12:36:26.426Z,4.90
2022-11-23T12:41:41.047Z,6.38
2022-11-23T12:46:55.530Z,6.35
2022-11-23T12:52:17.839Z,6.13
2022-11-23T12:57:29.515Z,6.45
2022-11-23T13:03:34.159Z,5.82
2022-11-23T13:09:11.983Z,4.38
2022-11-23T13:14:30.275Z,6.15
2022-11-23T13:20:22.545Z,4.68
2022-11-23T13:25:29.307Z,5.57
2022-11-23T13:31:07.127Z,6.90
2022-11-23T13:47:33.599Z,6.10
2022-11-23T13:52:39.394Z,4.93
2022-11-23T13:57:46.645Z,6.78
2022-11-23T14:02:50.542Z,6.73
2022-11-23T14:07:56.849Z,5.93
2022-11-23T14:13:09.438Z,5.63
2022-11-23T14:18:54.414Z,5.35
2022-11-23T14:24:45.880Z,4.82
2022-11-23T14:30:08.239Z,5.75
2022-11-23T14:35:28.290Z,5.88
2022-11-23T14:40:54.245Z,5.20
2022-11-23T14:46:04.275Z,5.15
2022-11-23T14:51:15.194Z,5.43
2022-11-23T14:56:32.559Z,3.95
2022-11-23T15:01:36.985Z,5.40
2022-11-23T15:06:45.999Z,4.85
2022-11-23T15:11:51.121Z,5.18
2022-11-23T15:16:54.866Z,6.00
2022-11-23T15:21:59.159Z,4.07
2022-11-23T15:27:12.386Z,5.05
2022-11-23T15:32:32.636Z,5.55
2022-11-23T15:37:46.613Z,4.18
2022-11-23T15:42:52.972Z,5.07
2022-11-23T15:47:56.684Z,4.10
2022-11-23T15:53:02.122Z,4.85
2022-11-23T15:58:10.456Z,5.53
2022-11-23T16:03:35.482Z,5.00
2022-11-23T16:08:41.043Z,4.30
2022-11-23T16:13:46.318Z,5.32
2022-11-23T16:18:56.930Z,6.70
2022-11-23T16:24:01.172Z,5.03
2022-11-23T16:29:06.301Z,6.50
2022-11-23T16:34:14.959Z,5.90
2022-11-23T16:39:18.545Z,6.43
2022-11-23T16:44:23.685Z,5.88
2022-11-23T16:49:28.888Z,18.13
2022-11-23T16:54:32.602Z,17.80
2022-11-23T16:59:37.894Z,20.45
2022-11-23T17:04:41.740Z,12.32
2022-11-23T17:09:45.794Z,18.00
2022-11-23T17:14:51.890Z,12.77
2022-11-23T17:19:59.694Z,14.88
2022-11-23T17:25:13.084Z,12.73
2022-11-23T17:30:23.263Z,10.15
2022-11-23T17:35:27.462Z,10.57
2022-11-23T17:40:31.139Z,7.85
2022-11-23T17:45:36.418Z,13.35
2022-11-23T17:50:40.550Z,13.82
2022-11-23T17:55:44.725Z,10.88
2022-11-23T18:00:49.960Z,9.32
2022-11-23T18:05:53.724Z,11.65
2022-11-23T18:10:59.411Z,10.20
2022-11-23T18:16:05.484Z,9.52
2022-11-23T18:21:10.892Z,7.03
2022-11-23T18:26:21.847Z,8.75
2022-11-23T18:31:27.280Z,7.47
2022-11-23T18:36:31.483Z,10.30
2022-11-23T18:41:35.128Z,8.02
2022-11-23T18:46:41.279Z,22.08
2022-11-23T18:51:45.062Z,13.32
2022-11-23T18:56:48.925Z,16.08
2022-11-23T19:01:54.384Z,9.52
2022-11-23T19:06:58.420Z,9.20
2022-11-23T19:12:02.324Z,10.02
2022-11-23T19:17:07.491Z,8.93
2022-11-23T19:22:11.326Z,7.90
2022-11-23T19:27:15.282Z,8.75
2022-11-23T19:32:20.511Z,7.65
2022-11-23T19:37:24.405Z,6.03
2022-11-23T19:42:28.148Z,9.68
2022-11-23T19:47:33.490Z,6.20
2022-11-23T19:53:10.062Z,8.73
2022-11-23T19:58:01.881Z,5.75
2022-11-23T20:03:07.000Z,5.90
2022-11-23T20:08:10.890Z,6.38
2022-11-23T20:13:15.353Z,6.05
2022-11-23T20:18:24.395Z,5.00
2022-11-23T20:23:31.445Z,3.53
2022-11-23T20:28:35.807Z,5.25
2022-11-23T20:33:41.117Z,5.28
2022-11-23T20:38:46.080Z,6.53
2022-11-23T20:43:53.684Z,3.40
2022-11-23T20:48:59.362Z,8.23
2022-11-23T20:54:03.275Z,4.95
2022-11-23T20:59:07.030Z,6.45
2022-11-23T21:04:12.512Z,4.32
2022-11-23T21:09:17.220Z,5.22
2022-11-23T21:14:24.600Z,5.07
2022-11-23T21:19:33.192Z,5.22
2022-11-23T21:24:37.242Z,3.65
2022-11-23T21:29:41.358Z,5.35
2022-11-23T21:34:46.557Z,3.95
2022-11-23T21:39:53.021Z,3.90
2022-11-23T21:44:57.530Z,6.13
2022-11-23T21:50:03.288Z,4.55
2022-11-23T21:55:09.728Z,4.97
2022-11-23T22:00:14.909Z,4.68
2022-11-23T22:05:19.976Z,7.78
2022-11-23T22:10:23.609Z,5.00
2022-11-23T22:15:28.239Z,6.55
2022-11-23T22:20:34.986Z,8.27
2022-11-23T22:25:38.656Z,5.88
2022-11-23T22:30:42.491Z,6.10
2022-11-23T22:35:47.729Z,5.70
2022-11-23T22:40:51.351Z,6.43
2022-11-23T22:45:55.229Z,5.60
2022-11-23T22:51:02.753Z,9.65
2022-11-23T22:56:08.196Z,8.35
2022-11-23T23:01:14.990Z,11.25
2022-11-23T23:06:23.159Z,9.43
2022-11-23T23:11:30.246Z,5.90
2022-11-23T23:16:34.250Z,8.57
2022-11-23T23:21:39.322Z,6.63
2022-11-23T23:26:42.951Z,7.22
2022-11-23T23:31:46.943Z,5.95
2022-11-23T23:36:51.937Z,8.20
2022-11-23T23:41:55.658Z,6.97
2022-11-23T23:46:59.330Z,6.25
2022-11-23T23:52:06.087Z,9.50
2022-11-23T23:57:10.201Z,8.27
